Time;durP1;ratioP1;P1;durP2;ratioP2;P2;SDS_P1;SDS_P2;PMS_P1;PMS_P2;Temp;Humidity;BMP_temperature;BMP_pressure;BME280_temperature;BME280_humidity;BME280_pressure;Samples;Min_cycle;Max_cycle;Signal;HPM_P1;HPM_P2
2023/06/04 00:02:16;;;;;;;;;;;;;;;;;;5053756;28;20004;-19
2023/06/04 00:04:42;;;;;;;;;;;;;;;;;;5054500;28;20347;-18
2023/06/04 00:07:08;;;;;;;;;;;;;;;;;;5054685;28;20247;-20
2023/06/04 00:09:34;;;;;;;;;;;;;;;;;;5054710;28;20022;-20
2023/06/04 00:12:00;;;;;;;;;;;;;;;;;;5053630;28;19908;-20
2023/06/04 00:14:26;;;;;;;;;;;;;;;;;;5054630;28;19935;-21
2023/06/04 00:16:52;;;;;;;;;;;;;;;;;;5054852;28;19967;-19
2023/06/04 00:19:17;;;;;;;;;;;;;;;;;;5054596;28;20008;-20
2023/06/04 00:21:43;;;;;;;;;;;;;;;;;;5054840;28;19966;-20
2023/06/04 00:24:12;;;;;;;;;;;;;;;;;;5053485;28;19913;-19
2023/06/04 00:26:38;;;;;;;;;;;;;;;;;;5054479;28;19912;-19
2023/06/04 00:29:04;;;;;;;;;;;;;;;;;;5054820;28;19920;-19
2023/06/04 00:31:30;;;;;;;;;;;;;;;;;;5054743;28;20340;-20
2023/06/04 00:33:55;;;;;;;;;;;;;;;;;;5054679;28;19909;-20
2023/06/04 00:36:21;;;;;;;;;;;;;;;;;;5054686;28;20312;-19
2023/06/04 00:38:47;;;;;;;;;;;;;;;;;;5054668;28;20336;-22
2023/06/04 00:41:13;;;;;;;;;;;;;;;;;;5054395;28;20362;-19
2023/06/04 00:43:39;;;;;;;;;;;;;;;;;;5054553;28;19982;-20
2023/06/04 00:46:05;;;;;;;;;;;;;;;;;;5054293;28;20255;-21
2023/06/04 00:48:31;;;;;;;;;;;;;;;;;;5054348;28;20383;-20
2023/06/04 00:50:57;;;;;;;;;;;;;;;;;;5054829;28;19919;-19
2023/06/04 00:53:23;;;;;;;;;;;;;;;;;;5054240;28;19956;-20
2023/06/04 00:55:50;;;;;;;;;;;;;;;;;;5054240;28;19944;-20
2023/06/04 00:58:16;;;;;;;;;;;;;;;;;;5054503;28;19917;-18
2023/06/04 01:00:42;;;;;;;;;;;;;;;;;;5054248;28;20404;-17
2023/06/04 01:03:08;;;;;;;;;;;;;;;;;;5054253;28;20015;-19
2023/06/04 01:05:34;;;;;;;;;;;;;;;;;;5054145;28;20189;-18
2023/06/04 01:08:00;;;;;;;;;;;;;;;;;;5056752;28;20336;-20
2023/06/04 01:10:26;;;;;;;;;;;;;;;;;;5058103;28;19909;-20
2023/06/04 01:12:52;;;;;;;;;;;;;;;;;;5057735;28;19909;-23
2023/06/04 01:15:18;;;;;;;;;;;;;;;;;;5057780;28;19909;-17
2023/06/04 01:17:46;;;;;;;;;;;;;;;;;;5057746;28;19916;-17
2023/06/04 01:20:12;;;;;;;;;;;;;;;;;;5057974;28;19924;-18
2023/06/04 01:22:38;;;;;;;;;;;;;;;;;;5056615;28;19909;-17
2023/06/04 01:25:04;;;;;;;;;;;;;;;;;;5057516;28;20019;-17
2023/06/04 01:27:32;;;;;;;;;;;;;;;;;;5057914;28;19920;-18
2023/06/04 01:29:57;;;;;;;;;;;;;;;;;;5057547;28;19909;-20
2023/06/04 01:32:23;;;;;;;;;;;;;;;;;;5057409;28;19974;-19
2023/06/04 01:34:49;;;;;;;;;;;;;;;;;;5057483;28;20003;-19
2023/06/04 01:37:16;;;;;;;;;;;;;;;;;;5057693;28;19908;-19
2023/06/04 01:39:42;;;;;;;;;;;;;;;;;;5057620;28;19909;-19
2023/06/04 01:42:08;;;;;;;;;;;;;;;;;;5057206;28;19916;-20
2023/06/04 01:44:34;;;;;;;;;;;;;;;;;;5057428;28;20357;-23
2023/06/04 01:47:00;;;;;;;;;;;;;;;;;;5057167;28;20264;-21
2023/06/04 01:49:27;;;;;;;;;;;;;;;;;;5057113;28;20335;-20
2023/06/04 01:51:53;;;;;;;;;;;;;;;;;;5057305;28;19917;-19
2023/06/04 01:54:18;;;;;;;;;;;;;;;;;;5057518;28;20339;-19
2023/06/04 01:56:44;;;;;;;;;;;;;;;;;;5056986;28;20255;-22
2023/06/04 01:59:11;;;;;;;;;;;;;;;;;;5056856;28;20306;-24
2023/06/04 02:01:37;;;;;;;;;;;;;;;;;;5056902;28;19909;-22
2023/06/04 02:04:03;;;;;;;;;;;;;;;;;;5056889;28;20300;-19
2023/06/04 02:06:29;;;;;;;;;;;;;;;;;;5056712;28;19917;-19
2023/06/04 02:08:55;;;;;;;;;;;;;;;;;;5057007;28;19989;-21
2023/06/04 02:11:21;;;;;;;;;;;;;;;;;;5056952;28;19908;-21
2023/06/04 02:13:47;;;;;;;;;;;;;;;;;;5056614;28;20256;-21
2023/06/04 02:16:14;;;;;;;;;;;;;;;;;;5056869;28;19944;-19
2023/06/04 02:18:40;;;;;;;;;;;;;;;;;;5055544;28;20383;-23
2023/06/04 02:21:06;;;;;;;;;;;;;;;;;;5056482;28;19938;-21
2023/06/04 02:23:32;;;;;;;;;;;;;;;;;;5056434;28;19920;-20
2023/06/04 02:25:58;;;;;;;;;;;;;;;;;;5056394;28;19940;-19
2023/06/04 02:28:24;;;;;;;;;;;;;;;;;;5056673;28;19910;-20
2023/06/04 02:30:50;;;;;;;;;;;;;;;;;;5056662;28;19917;-17
2023/06/04 02:33:16;;;;;;;;;;;;;;;;;;5056281;28;19909;-19
2023/06/04 02:35:42;;;;;;;;;;;;;;;;;;5056307;28;20387;-20
2023/06/04 02:38:08;;;;;;;;;;;;;;;;;;5056455;28;19909;-20
2023/06/04 02:40:34;;;;;;;;;;;;;;;;;;5056387;28;20359;-23
2023/06/04 02:43:00;;;;;;;;;;;;;;;;;;5055962;28;19975;-20
2023/06/04 02:45:26;;;;;;;;;;;;;;;;;;5055997;28;19916;-19
2023/06/04 02:47:52;;;;;;;;;;;;;;;;;;5056245;28;19912;-21
2023/06/04 02:50:18;;;;;;;;;;;;;;;;;;5055912;28;20259;-20
2023/06/04 02:52:44;;;;;;;;;;;;;;;;;;5054899;28;19936;-18
2023/06/04 02:55:11;;;;;;;;;;;;;;;;;;5055938;28;20247;-19
2023/06/04 02:57:37;;;;;;;;;;;;;;;;;;5055889;28;20362;-20
2023/06/04 03:00:13;;;;;;;;;;;;;;;;;;5055814;28;19963;-26
2023/06/04 03:02:39;;;;;;;;;;;;;;;;;;5055932;28;19931;-19
2023/06/04 03:05:05;;;;;;;;;;;;;;;;;;5055510;28;19921;-19
2023/06/04 03:07:32;;;;;;;;;;;;;;;;;;5055939;28;19919;-17
2023/06/04 03:09:58;;;;;;;;;;;;;;;;;;5055932;28;20306;-18
2023/06/04 03:12:24;;;;;;;;;;;;;;;;;;5055684;28;19909;-20
2023/06/04 03:14:50;;;;;;;;;;;;;;;;;;5055856;28;19970;-20
2023/06/04 03:17:15;;;;;;;;;;;;;;;;;;5055476;28;19952;-19
2023/06/04 03:19:41;;;;;;;;;;;;;;;;;;5055459;28;19908;-19
2023/06/04 03:22:07;;;;;;;;;;;;;;;;;;5055329;28;20290;-19
2023/06/04 03:24:34;;;;;;;;;;;;;;;;;;5055604;28;19908;-29
2023/06/04 03:27:00;;;;;;;;;;;;;;;;;;5054216;28;19913;-19
2023/06/04 03:29:26;;;;;;;;;;;;;;;;;;5055564;28;20328;-23
2023/06/04 03:31:52;;;;;;;;;;;;;;;;;;5055138;28;20400;-19
2023/06/04 03:34:17;;;;;;;;;;;;;;;;;;5055151;28;20255;-18
2023/06/04 03:36:43;;;;;;;;;;;;;;;;;;5055174;28;19995;-23
2023/06/04 03:39:10;;;;;;;;;;;;;;;;;;5055096;28;20022;-19
2023/06/04 03:41:36;;;;;;;;;;;;;;;;;;5055081;28;19967;-19
2023/06/04 03:44:02;;;;;;;;;;;;;;;;;;5055221;28;19909;-19
2023/06/04 03:46:31;;;;;;;;;;;;;;;;;;5055217;28;20015;-19
2023/06/04 03:48:57;;;;;;;;;;;;;;;;;;5054914;28;19919;-19
2023/06/04 03:51:23;;;;;;;;;;;;;;;;;;5054954;28;20107;-19
2023/06/04 03:53:49;;;;;;;;;;;;;;;;;;5053849;28;19936;-22
2023/06/04 03:56:15;;;;;;;;;;;;;;;;;;5054923;28;19909;-20
2023/06/04 03:58:41;;;;;;;;;;;;;;;;;;5054905;28;19916;-19
2023/06/04 04:01:10;;;;;;;;;;;;;;;;;;5055067;28;20296;-20
2023/06/04 04:03:36;;;;;;;;;;;;;;;;;;5053653;28;19924;-20
2023/06/04 04:06:02;;;;;;;;;;;;;;;;;;5054790;28;19917;-17
2023/06/04 04:08:31;;;;;;;;;;;;;;;;;;5054860;28;19909;-22
2023/06/04 04:10:57;;;;;;;;;;;;;;;;;;5055564;28;19962;-21
2023/06/04 04:13:23;;;;;;;;;;;;;;;;;;5054610;28;20339;-23
2023/06/04 04:15:52;;;;;;;;;;;;;;;;;;5054967;28;19927;-20
2023/06/04 04:18:19;;;;;;;;;;;;;;;;;;5053646;28;19909;-20
2023/06/04 04:20:45;;;;;;;;;;;;;;;;;;5054880;28;19913;-20
2023/06/04 04:23:12;;;;;;;;;;;;;;;;;;5054543;28;19919;-23
2023/06/04 04:25:38;;;;;;;;;;;;;;;;;;5054550;28;19920;-20
2023/06/04 04:28:06;;;;;;;;;;;;;;;;;;5054537;28;19909;-18
2023/06/04 04:30:33;;;;;;;;;;;;;;;;;;5054497;28;19915;-22
2023/06/04 04:32:59;;;;;;;;;;;;;;;;;;5054573;28;19908;-18
2023/06/04 04:35:25;;;;;;;;;;;;;;;;;;5054464;28;19909;-20
2023/06/04 04:37:51;;;;;;;;;;;;;;;;;;5054494;28;19909;-21
2023/06/04 04:40:17;;;;;;;;;;;;;;;;;;5054429;28;19909;-20
2023/06/04 04:42:43;;;;;;;;;;;;;;;;;;5057038;28;19928;-20
2023/06/04 04:45:09;;;;;;;;;;;;;;;;;;5058408;28;20011;-21
2023/06/04 04:47:35;;;;;;;;;;;;;;;;;;5058633;28;20362;-21
2023/06/04 04:50:01;;;;;;;;;;;;;;;;;;5058259;28;19909;-19
2023/06/04 04:52:27;;;;;;;;;;;;;;;;;;5058224;28;19999;-21
2023/06/04 04:54:55;;;;;;;;;;;;;;;;;;5058199;28;20024;-19
2023/06/04 04:57:21;;;;;;;;;;;;;;;;;;5057183;28;19909;-20
2023/06/04 04:59:47;;;;;;;;;;;;;;;;;;5058088;28;19909;-21
2023/06/04 05:02:13;;;;;;;;;;;;;;;;;;5056993;28;19912;-20
2023/06/04 05:04:39;;;;;;;;;;;;;;;;;;5057777;28;19927;-23
2023/06/04 05:07:05;;;;;;;;;;;;;;;;;;5058079;28;19967;-21
2023/06/04 05:09:31;;;;;;;;;;;;;;;;;;5057861;28;19992;-23
2023/06/04 05:11:57;;;;;;;;;;;;;;;;;;5057770;28;19909;-20
2023/06/04 05:14:23;;;;;;;;;;;;;;;;;;5058068;28;19912;-21
2023/06/04 05:16:49;;;;;;;;;;;;;;;;;;5056802;28;19916;-20
2023/06/04 05:19:15;;;;;;;;;;;;;;;;;;5057670;28;19916;-17
2023/06/04 05:21:41;;;;;;;;;;;;;;;;;;5056808;28;19909;-19
2023/06/04 05:24:07;;;;;;;;;;;;;;;;;;5057872;28;19909;-19
2023/06/04 05:26:33;;;;;;;;;;;;;;;;;;5057536;28;19917;-19
2023/06/04 05:28:59;;;;;;;;;;;;;;;;;;5057530;28;19909;-19
2023/06/04 05:31:26;;;;;;;;;;;;;;;;;;5058023;28;19908;-19
2023/06/04 05:33:52;;;;;;;;;;;;;;;;;;5057435;28;19909;-21
2023/06/04 05:36:18;;;;;;;;;;;;;;;;;;5057733;28;20019;-19
2023/06/04 05:38:44;;;;;;;;;;;;;;;;;;5057359;28;19920;-21
2023/06/04 05:41:11;;;;;;;;;;;;;;;;;;5056347;28;19909;-20
2023/06/04 05:43:37;;;;;;;;;;;;;;;;;;5057502;28;19916;-23
2023/06/04 05:46:03;;;;;;;;;;;;;;;;;;5057411;28;19983;-20
2023/06/04 05:48:28;;;;;;;;;;;;;;;;;;5057195;28;20264;-19
2023/06/04 05:50:55;;;;;;;;;;;;;;;;;;5057085;28;19931;-20
2023/06/04 05:53:21;;;;;;;;;;;;;;;;;;5055971;28;19909;-21
2023/06/04 05:55:47;;;;;;;;;;;;;;;;;;5057022;28;20259;-21
2023/06/04 05:58:13;;;;;;;;;;;;;;;;;;5057476;28;19912;-22
2023/06/04 06:00:39;;;;;;;;;;;;;;;;;;5057183;28;19965;-20
2023/06/04 06:03:06;;;;;;;;;;;;;;;;;;5057331;28;19935;-19
2023/06/04 06:05:32;;;;;;;;;;;;;;;;;;5056662;28;19920;-21
2023/06/04 06:07:58;;;;;;;;;;;;;;;;;;5056810;28;20012;-19
2023/06/04 06:10:25;;;;;;;;;;;;;;;;;;5057131;28;19920;-21
2023/06/04 06:12:51;;;;;;;;;;;;;;;;;;5056636;28;20344;-21
2023/06/04 06:15:16;;;;;;;;;;;;;;;;;;5055710;28;19920;-23
2023/06/04 06:17:42;;;;;;;;;;;;;;;;;;5056620;28;19913;-19
2023/06/04 06:20:08;;;;;;;;;;;;;;;;;;5057347;28;19966;-21
2023/06/04 06:22:35;;;;;;;;;;;;;;;;;;5056659;28;19909;-20
2023/06/04 06:25:01;;;;;;;;;;;;;;;;;;5056701;28;19909;-20
2023/06/04 06:27:27;;;;;;;;;;;;;;;;;;5055475;28;20347;-20
2023/06/04 06:29:53;;;;;;;;;;;;;;;;;;5056375;28;19920;-19
2023/06/04 06:32:19;;;;;;;;;;;;;;;;;;5056294;28;19915;-20
2023/06/04 06:34:45;;;;;;;;;;;;;;;;;;5056308;28;20274;-19
2023/06/04 06:37:11;;;;;;;;;;;;;;;;;;5056211;28;19909;-21
2023/06/04 06:39:36;;;;;;;;;;;;;;;;;;5055265;28;19913;-20
2023/06/04 06:42:02;;;;;;;;;;;;;;;;;;5056095;28;19909;-19
2023/06/04 06:44:28;;;;;;;;;;;;;;;;;;5056133;28;20375;-20
2023/06/04 06:46:54;;;;;;;;;;;;;;;;;;5055005;28;20259;-21
2023/06/04 06:49:20;;;;;;;;;;;;;;;;;;5055022;28;19909;-20
2023/06/04 06:51:46;;;;;;;;;;;;;;;;;;5055898;28;19920;-20
2023/06/04 06:54:12;;;;;;;;;;;;;;;;;;5056172;28;19974;-20
2023/06/04 06:56:38;;;;;;;;;;;;;;;;;;5055963;28;19935;-24
2023/06/04 06:59:04;;;;;;;;;;;;;;;;;;5055840;28;19908;-26
2023/06/04 07:01:32;;;;;;;;;;;;;;;;;;5055819;28;19909;-23
2023/06/04 07:03:58;;;;;;;;;;;;;;;;;;5055468;28;20078;-21
2023/06/04 07:06:24;;;;;;;;;;;;;;;;;;5055371;28;20015;-18
2023/06/04 07:08:50;;;;;;;;;;;;;;;;;;5056442;28;19909;-19
2023/06/04 07:11:16;;;;;;;;;;;;;;;;;;5055861;28;19916;-21
2023/06/04 07:13:42;;;;;;;;;;;;;;;;;;5055593;28;19909;-19
2023/06/04 07:16:08;;;;;;;;;;;;;;;;;;5055549;28;19976;-23
2023/06/04 07:18:34;;;;;;;;;;;;;;;;;;5055543;28;19916;-19
2023/06/04 07:21:00;;;;;;;;;;;;;;;;;;5055779;28;20239;-19
2023/06/04 07:23:27;;;;;;;;;;;;;;;;;;5054331;28;19916;-20
2023/06/04 07:25:53;;;;;;;;;;;;;;;;;;5055836;28;19932;-21
2023/06/04 07:28:19;;;;;;;;;;;;;;;;;;5055575;28;19909;-23
2023/06/04 07:30:45;;;;;;;;;;;;;;;;;;5055306;28;19977;-23
2023/06/04 07:33:10;;;;;;;;;;;;;;;;;;5055475;28;19915;-20
2023/06/04 07:35:36;;;;;;;;;;;;;;;;;;5055412;28;19913;-19
2023/06/04 07:38:02;;;;;;;;;;;;;;;;;;5054183;28;20027;-20
2023/06/04 07:40:28;;;;;;;;;;;;;;;;;;5055611;28;20368;-20
2023/06/04 07:42:54;;;;;;;;;;;;;;;;;;5054927;28;19978;-25
2023/06/04 07:45:20;;;;;;;;;;;;;;;;;;5054917;28;19913;-22
2023/06/04 07:47:46;;;;;;;;;;;;;;;;;;5055280;28;19909;-20
2023/06/04 07:50:12;;;;;;;;;;;;;;;;;;5054960;28;19909;-20
2023/06/04 07:52:38;;;;;;;;;;;;;;;;;;5053882;28;19909;-20
2023/06/04 07:55:04;;;;;;;;;;;;;;;;;;5055735;28;19935;-21
2023/06/04 07:57:31;;;;;;;;;;;;;;;;;;5055205;28;19948;-20
2023/06/04 07:59:57;;;;;;;;;;;;;;;;;;5054694;28;19966;-19
2023/06/04 08:02:23;;;;;;;;;;;;;;;;;;5054821;28;19971;-24
2023/06/04 08:04:50;;;;;;;;;;;;;;;;;;5054632;28;19956;-22
2023/06/04 08:07:16;;;;;;;;;;;;;;;;;;5054769;28;20003;-18
2023/06/04 08:09:44;;;;;;;;;;;;;;;;;;5053781;28;19944;-19
2023/06/04 08:12:10;;;;;;;;;;;;;;;;;;5054643;28;19913;-17
2023/06/04 08:14:36;;;;;;;;;;;;;;;;;;5053742;28;19920;-20
2023/06/04 08:17:02;;;;;;;;;;;;;;;;;;5056836;28;19909;-19
2023/06/04 08:19:28;;;;;;;;;;;;;;;;;;5059137;28;20340;-22
2023/06/04 08:21:54;;;;;;;;;;;;;;;;;;5058971;28;20247;-20
2023/06/04 08:24:20;;;;;;;;;;;;;;;;;;5058715;28;20267;-21
2023/06/04 08:26:47;;;;;;;;;;;;;;;;;;5058885;28;20012;-19
2023/06/04 08:29:12;;;;;;;;;;;;;;;;;;5058615;28;19909;-21
2023/06/04 08:31:39;;;;;;;;;;;;;;;;;;5058882;28;20010;-18
2023/06/04 08:34:05;;;;;;;;;;;;;;;;;;5057634;28;19909;-20
2023/06/04 08:36:32;;;;;;;;;;;;;;;;;;5058568;28;19908;-20
2023/06/04 08:38:58;;;;;;;;;;;;;;;;;;5059328;28;19992;-19
2023/06/04 08:41:26;;;;;;;;;;;;;;;;;;5058437;28;19909;-22
2023/06/04 08:43:52;;;;;;;;;;;;;;;;;;5058453;28;20001;-18
2023/06/04 08:46:18;;;;;;;;;;;;;;;;;;5058282;28;20316;-20
2023/06/04 08:48:43;;;;;;;;;;;;;;;;;;5058341;28;19920;-20
2023/06/04 08:51:10;;;;;;;;;;;;;;;;;;5058291;28;19927;-21
2023/06/04 08:53:39;;;;;;;;;;;;;;;;;;5058210;28;19948;-19
2023/06/04 08:56:05;;;;;;;;;;;;;;;;;;5058308;28;19970;-20
2023/06/04 08:58:30;;;;;;;;;;;;;;;;;;5058203;28;20328;-22
2023/06/04 09:00:56;;;;;;;;;;;;;;;;;;5058125;28;19909;-20
2023/06/04 09:03:24;;;;;;;;;;;;;;;;;;5057808;28;19909;-22
2023/06/04 09:05:50;;;;;;;;;;;;;;;;;;5056971;28;19927;-20
2023/06/04 09:08:16;;;;;;;;;;;;;;;;;;5058203;28;19909;-20
2023/06/04 09:10:42;;;;;;;;;;;;;;;;;;5057856;28;19908;-21
2023/06/04 09:13:09;;;;;;;;;;;;;;;;;;5058040;28;19920;-19
2023/06/04 09:15:35;;;;;;;;;;;;;;;;;;5058361;28;20247;-20
2023/06/04 09:18:01;;;;;;;;;;;;;;;;;;5057737;28;19908;-20
2023/06/04 09:20:27;;;;;;;;;;;;;;;;;;5057708;28;19909;-22
2023/06/04 09:22:53;;;;;;;;;;;;;;;;;;5056632;28;19913;-19
2023/06/04 09:25:19;;;;;;;;;;;;;;;;;;5057578;28;19913;-19
2023/06/04 09:27:44;;;;;;;;;;;;;;;;;;5057182;28;19909;-20
2023/06/04 09:30:10;;;;;;;;;;;;;;;;;;5057528;28;19909;-17
2023/06/04 09:32:36;;;;;;;;;;;;;;;;;;5057643;28;19919;-20
2023/06/04 09:35:02;;;;;;;;;;;;;;;;;;5056498;28;19963;-20
2023/06/04 09:37:29;;;;;;;;;;;;;;;;;;5057487;28;19965;-20
2023/06/04 09:39:54;;;;;;;;;;;;;;;;;;5058130;28;19921;-25
2023/06/04 09:42:21;;;;;;;;;;;;;;;;;;5057027;28;19909;-21
2023/06/04 09:44:47;;;;;;;;;;;;;;;;;;5057348;28;19999;-19
2023/06/04 09:47:13;;;;;;;;;;;;;;;;;;5057208;28;20004;-20
2023/06/04 09:49:39;;;;;;;;;;;;;;;;;;5057768;28;19928;-20
2023/06/04 09:52:04;;;;;;;;;;;;;;;;;;5056095;28;19909;-24
2023/06/04 09:54:30;;;;;;;;;;;;;;;;;;5057349;28;19909;-19
2023/06/04 09:56:57;;;;;;;;;;;;;;;;;;5056098;28;20332;-19
2023/06/04 09:59:24;;;;;;;;;;;;;;;;;;5057292;28;19952;-19
2023/06/04 10:01:53;;;;;;;;;;;;;;;;;;5057197;28;19909;-19
2023/06/04 10:04:19;;;;;;;;;;;;;;;;;;5055737;28;20004;-20
2023/06/04 10:06:45;;;;;;;;;;;;;;;;;;5056809;28;19927;-19
2023/06/04 10:09:11;;;;;;;;;;;;;;;;;;5056838;28;19968;-20
2023/06/04 10:11:37;;;;;;;;;;;;;;;;;;5056835;28;20291;-19
2023/06/04 10:14:04;;;;;;;;;;;;;;;;;;5056744;28;19924;-22
2023/06/04 10:16:30;;;;;;;;;;;;;;;;;;5056689;28;19962;-22
2023/06/04 10:18:56;;;;;;;;;;;;;;;;;;5056628;28;19908;-20
2023/06/04 10:21:22;;;;;;;;;;;;;;;;;;5056716;28;19916;-25
2023/06/04 10:23:49;;;;;;;;;;;;;;;;;;5056607;28;20275;-20
2023/06/04 10:26:15;;;;;;;;;;;;;;;;;;5056494;28;20263;-20
2023/06/04 10:28:41;;;;;;;;;;;;;;;;;;5057007;28;19915;-18
2023/06/04 10:31:07;;;;;;;;;;;;;;;;;;5056557;28;19909;-25
2023/06/04 10:33:33;;;;;;;;;;;;;;;;;;5056353;28;19913;-20
2023/06/04 10:35:59;;;;;;;;;;;;;;;;;;5055396;28;19908;-21
2023/06/04 10:38:25;;;;;;;;;;;;;;;;;;5056272;28;19915;-19
2023/06/04 10:40:51;;;;;;;;;;;;;;;;;;5054455;28;19909;-20
2023/06/04 10:43:17;;;;;;;;;;;;;;;;;;5056061;28;19915;-22
2023/06/04 10:45:43;;;;;;;;;;;;;;;;;;5056317;28;19963;-17
2023/06/04 10:48:09;;;;;;;;;;;;;;;;;;5056044;28;19913;-21
2023/06/04 10:50:35;;;;;;;;;;;;;;;;;;5055994;28;19928;-24
2023/06/04 10:53:05;;;;;;;;;;;;;;;;;;5055880;28;19936;-21
2023/06/04 10:55:31;;;;;;;;;;;;;;;;;;5054918;28;20011;-20
2023/06/04 10:57:57;;;;;;;;;;;;;;;;;;5056391;28;20355;-20
2023/06/04 11:00:23;;;;;;;;;;;;;;;;;;5056126;28;19921;-20
2023/06/04 11:02:49;;;;;;;;;;;;;;;;;;5055782;28;19908;-22
2023/06/04 11:05:15;;;;;;;;;;;;;;;;;;5055594;28;19921;-20
2023/06/04 11:07:43;;;;;;;;;;;;;;;;;;5055732;28;19919;-19
2023/06/04 11:10:09;;;;;;;;;;;;;;;;;;5054885;28;19908;-21
2023/06/04 11:12:34;;;;;;;;;;;;;;;;;;5055751;28;20259;-20
2023/06/04 11:15:00;;;;;;;;;;;;;;;;;;5055704;28;20339;-20
2023/06/04 11:17:26;;;;;;;;;;;;;;;;;;5055568;28;19916;-20
2023/06/04 11:19:55;;;;;;;;;;;;;;;;;;5055535;28;19915;-22
2023/06/04 11:22:21;;;;;;;;;;;;;;;;;;5055725;28;19912;-19
2023/06/04 11:24:48;;;;;;;;;;;;;;;;;;5055034;28;20230;-19
2023/06/04 11:27:14;;;;;;;;;;;;;;;;;;5055305;28;20012;-20
2023/06/04 11:29:40;;;;;;;;;;;;;;;;;;5055654;28;19909;-20
2023/06/04 11:32:06;;;;;;;;;;;;;;;;;;5055442;28;20255;-22
2023/06/04 11:34:33;;;;;;;;;;;;;;;;;;5055466;28;19919;-20
2023/06/04 11:36:58;;;;;;;;;;;;;;;;;;5055099;28;20393;-20
2023/06/04 11:39:24;;;;;;;;;;;;;;;;;;5055338;28;19909;-23
2023/06/04 11:41:51;;;;;;;;;;;;;;;;;;5055000;28;20000;-24
2023/06/04 11:44:17;;;;;;;;;;;;;;;;;;5055337;28;19909;-24
2023/06/04 11:46:48;;;;;;;;;;;;;;;;;;5055180;28;20401;-20
2023/06/04 11:49:14;;;;;;;;;;;;;;;;;;5055028;28;20003;-19
2023/06/04 11:51:40;;;;;;;;;;;;;;;;;;5054798;28;19909;-20
2023/06/04 11:54:06;;;;;;;;;;;;;;;;;;5054798;28;19916;-20
2023/06/04 11:56:32;;;;;;;;;;;;;;;;;;5054886;28;19909;-19
2023/06/04 11:58:58;;;;;;;;;;;;;;;;;;5054836;28;19916;-20
2023/06/04 12:01:28;;;;;;;;;;;;;;;;;;5054841;28;19913;-19
2023/06/04 12:03:54;;;;;;;;;;;;;;;;;;5054593;28;19924;-20
2023/06/04 12:06:20;;;;;;;;;;;;;;;;;;5054687;28;19919;-22
2023/06/04 12:08:47;;;;;;;;;;;;;;;;;;5055170;28;19909;-22
2023/06/04 12:11:13;;;;;;;;;;;;;;;;;;5054729;28;19935;-19
2023/06/04 12:13:39;;;;;;;;;;;;;;;;;;5054653;28;19913;-22
2023/06/04 12:16:05;;;;;;;;;;;;;;;;;;5054728;28;19920;-20
2023/06/04 12:18:32;;;;;;;;;;;;;;;;;;5054772;28;19909;-21
2023/06/04 12:20:58;;;;;;;;;;;;;;;;;;5054590;28;19916;-19
2023/06/04 12:23:24;;;;;;;;;;;;;;;;;;5054626;28;19909;-20
2023/06/04 12:25:53;;;;;;;;;;;;;;;;;;5054472;28;20339;-20
2023/06/04 12:28:19;;;;;;;;;;;;;;;;;;5053613;28;20005;-20
2023/06/04 12:30:46;;;;;;;;;;;;;;;;;;5054508;28;19909;-20
2023/06/04 12:33:11;;;;;;;;;;;;;;;;;;5054441;28;20004;-22
2023/06/04 12:35:37;;;;;;;;;;;;;;;;;;5054456;28;20007;-22
2023/06/04 12:38:04;;;;;;;;;;;;;;;;;;5054446;28;19913;-22
2023/06/04 12:40:30;;;;;;;;;;;;;;;;;;5054773;28;20288;-22
2023/06/04 12:42:56;;;;;;;;;;;;;;;;;;5054391;28;19948;-20
2023/06/04 12:45:22;;;;;;;;;;;;;;;;;;5053400;28;19956;-21
2023/06/04 12:47:48;;;;;;;;;;;;;;;;;;5054669;28;19970;-19
2023/06/04 12:50:14;;;;;;;;;;;;;;;;;;5054614;28;19921;-20
2023/06/04 12:52:40;;;;;;;;;;;;;;;;;;5054347;28;19997;-20
2023/06/04 12:55:06;;;;;;;;;;;;;;;;;;5054453;28;19935;-20
2023/06/04 12:57:32;;;;;;;;;;;;;;;;;;5055085;28;19992;-20
2023/06/04 12:59:58;;;;;;;;;;;;;;;;;;5053347;28;19909;-21
2023/06/04 13:02:24;;;;;;;;;;;;;;;;;;5054485;28;19909;-21
2023/06/04 13:04:54;;;;;;;;;;;;;;;;;;5058003;28;19931;-21
2023/06/04 13:07:20;;;;;;;;;;;;;;;;;;5058332;28;20259;-20
2023/06/04 13:09:46;;;;;;;;;;;;;;;;;;5057995;28;19908;-19
2023/06/04 13:12:13;;;;;;;;;;;;;;;;;;5057900;28;19991;-20
2023/06/04 13:14:39;;;;;;;;;;;;;;;;;;5057857;28;20002;-25
2023/06/04 13:17:05;;;;;;;;;;;;;;;;;;5057803;28;19909;-20
2023/06/04 13:19:31;;;;;;;;;;;;;;;;;;5057781;28;20252;-19
2023/06/04 13:21:57;;;;;;;;;;;;;;;;;;5057618;28;19917;-22
2023/06/04 13:24:23;;;;;;;;;;;;;;;;;;5057702;28;19924;-24
2023/06/04 13:26:49;;;;;;;;;;;;;;;;;;5056583;28;20225;-22
2023/06/04 13:29:16;;;;;;;;;;;;;;;;;;5057811;28;20277;-20
2023/06/04 13:31:42;;;;;;;;;;;;;;;;;;5057860;28;19959;-20
2023/06/04 13:34:08;;;;;;;;;;;;;;;;;;5057453;28;19931;-23
2023/06/04 13:36:34;;;;;;;;;;;;;;;;;;5057747;28;19913;-19
2023/06/04 13:39:00;;;;;;;;;;;;;;;;;;5057385;28;20349;-24
2023/06/04 13:41:26;;;;;;;;;;;;;;;;;;5057660;28;19916;-19
2023/06/04 13:43:52;;;;;;;;;;;;;;;;;;5057260;28;19940;-20
2023/06/04 13:46:18;;;;;;;;;;;;;;;;;;5057259;28;20377;-23
2023/06/04 13:48:44;;;;;;;;;;;;;;;;;;5057291;28;19919;-18
2023/06/04 13:51:11;;;;;;;;;;;;;;;;;;5057256;28;19932;-19
2023/06/04 13:53:37;;;;;;;;;;;;;;;;;;5057159;28;19913;-19
2023/06/04 13:56:03;;;;;;;;;;;;;;;;;;5057126;28;19909;-21
2023/06/04 13:58:29;;;;;;;;;;;;;;;;;;5056154;28;19924;-22
2023/06/04 14:00:55;;;;;;;;;;;;;;;;;;5057602;28;19920;-20
2023/06/04 14:03:21;;;;;;;;;;;;;;;;;;5056907;28;19970;-19
2023/06/04 14:05:47;;;;;;;;;;;;;;;;;;5056907;28;19917;-21
2023/06/04 14:08:14;;;;;;;;;;;;;;;;;;5056876;28;19951;-19
2023/06/04 14:10:40;;;;;;;;;;;;;;;;;;5056840;28;20347;-21
2023/06/04 14:13:06;;;;;;;;;;;;;;;;;;5055682;28;19970;-22
2023/06/04 14:15:32;;;;;;;;;;;;;;;;;;5055681;28;20374;-26
2023/06/04 14:17:58;;;;;;;;;;;;;;;;;;5056699;28;19909;-20
2023/06/04 14:20:24;;;;;;;;;;;;;;;;;;5055691;28;19912;-20
2023/06/04 14:22:50;;;;;;;;;;;;;;;;;;5056813;28;19908;-21
2023/06/04 14:25:16;;;;;;;;;;;;;;;;;;5056643;28;19956;-20
2023/06/04 14:27:43;;;;;;;;;;;;;;;;;;5056726;28;19971;-19
2023/06/04 14:30:09;;;;;;;;;;;;;;;;;;5056798;28;19909;-25
2023/06/04 14:32:36;;;;;;;;;;;;;;;;;;5055465;28;20347;-21
2023/06/04 14:35:02;;;;;;;;;;;;;;;;;;5056666;28;20350;-19
2023/06/04 14:37:28;;;;;;;;;;;;;;;;;;5056676;28;19909;-21
2023/06/04 14:39:53;;;;;;;;;;;;;;;;;;5055412;28;20327;-23
2023/06/04 14:42:19;;;;;;;;;;;;;;;;;;5056195;28;19932;-18
2023/06/04 14:44:46;;;;;;;;;;;;;;;;;;5056268;28;20015;-23
2023/06/04 14:47:12;;;;;;;;;;;;;;;;;;5056107;28;19924;-20
2023/06/04 14:49:38;;;;;;;;;;;;;;;;;;5055866;28;19958;-20
2023/06/04 14:52:04;;;;;;;;;;;;;;;;;;5056208;28;19912;-20
2023/06/04 14:54:30;;;;;;;;;;;;;;;;;;5055962;28;20221;-21
2023/06/04 14:56:56;;;;;;;;;;;;;;;;;;5054900;28;19919;-20
2023/06/04 14:59:22;;;;;;;;;;;;;;;;;;5055809;28;19948;-23
2023/06/04 15:01:48;;;;;;;;;;;;;;;;;;5055765;28;19908;-18
2023/06/04 15:04:14;;;;;;;;;;;;;;;;;;5055633;28;19924;-20
2023/06/04 15:06:40;;;;;;;;;;;;;;;;;;5056103;28;19924;-19
2023/06/04 15:09:06;;;;;;;;;;;;;;;;;;5055838;28;20255;-20
2023/06/04 15:11:32;;;;;;;;;;;;;;;;;;5056019;28;19932;-22
2023/06/04 15:13:58;;;;;;;;;;;;;;;;;;5054717;28;20324;-21
2023/06/04 15:16:24;;;;;;;;;;;;;;;;;;5055663;28;19974;-22
2023/06/04 15:18:50;;;;;;;;;;;;;;;;;;5056164;28;19920;-21
2023/06/04 15:21:16;;;;;;;;;;;;;;;;;;5055529;28;19909;-24
2023/06/04 15:23:44;;;;;;;;;;;;;;;;;;5055378;28;19909;-19
2023/06/04 15:26:10;;;;;;;;;;;;;;;;;;5053947;28;20006;-20
2023/06/04 15:28:36;;;;;;;;;;;;;;;;;;5055362;28;19931;-19
2023/06/04 15:31:02;;;;;;;;;;;;;;;;;;5055331;28;20332;-19
2023/06/04 15:33:28;;;;;;;;;;;;;;;;;;5055289;28;19909;-20
2023/06/04 15:35:54;;;;;;;;;;;;;;;;;;5055794;28;19913;-20
2023/06/04 15:38:20;;;;;;;;;;;;;;;;;;5055211;28;20332;-20
2023/06/04 15:40:46;;;;;;;;;;;;;;;;;;5055148;28;19908;-20
2023/06/04 15:43:12;;;;;;;;;;;;;;;;;;5055119;28;19928;-20
2023/06/04 15:45:37;;;;;;;;;;;;;;;;;;5055198;28;19920;-19
2023/06/04 15:48:03;;;;;;;;;;;;;;;;;;5055549;28;19924;-19
2023/06/04 15:50:29;;;;;;;;;;;;;;;;;;5055015;28;19913;-21
2023/06/04 15:52:55;;;;;;;;;;;;;;;;;;5054911;28;19916;-22
2023/06/04 15:55:21;;;;;;;;;;;;;;;;;;5055495;28;19970;-21
2023/06/04 15:57:47;;;;;;;;;;;;;;;;;;5054985;28;19920;-18
2023/06/04 16:00:13;;;;;;;;;;;;;;;;;;5054911;28;19938;-19
2023/06/04 16:02:39;;;;;;;;;;;;;;;;;;5053819;28;20236;-20
2023/06/04 16:05:05;;;;;;;;;;;;;;;;;;5054609;28;19921;-19
2023/06/04 16:07:31;;;;;;;;;;;;;;;;;;5055056;28;19912;-21
2023/06/04 16:09:57;;;;;;;;;;;;;;;;;;5055094;28;20324;-23
2023/06/04 16:12:23;;;;;;;;;;;;;;;;;;5054483;28;19913;-21
2023/06/04 16:14:50;;;;;;;;;;;;;;;;;;5054849;28;19909;-21
2023/06/04 16:17:16;;;;;;;;;;;;;;;;;;5054796;28;19917;-19
2023/06/04 16:19:41;;;;;;;;;;;;;;;;;;5053792;28;19908;-23
2023/06/04 16:22:07;;;;;;;;;;;;;;;;;;5054640;28;20336;-21
2023/06/04 16:24:33;;;;;;;;;;;;;;;;;;5054642;28;19995;-19
2023/06/04 16:26:59;;;;;;;;;;;;;;;;;;5054575;28;19968;-19
2023/06/04 16:29:25;;;;;;;;;;;;;;;;;;5055097;28;19909;-21
2023/06/04 16:31:51;;;;;;;;;;;;;;;;;;5053520;28;19916;-21
2023/06/04 16:34:17;;;;;;;;;;;;;;;;;;5054500;28;20356;-21
2023/06/04 16:36:43;;;;;;;;;;;;;;;;;;5055044;28;20402;-20
2023/06/04 16:39:10;;;;;;;;;;;;;;;;;;5057587;28;19909;-21